KJEF/JEF METAR and TAF weather

Enter ICAO airport designator
Station Type Date Time Source
KJEF METAR 2021/05/13 04:53 UTC NOAA

KJEF 130453Z AUTO 26003KT 10SM CLR 09/00 A3040 RMK AO2 SLP284 T00890000 $


Station Type Date Time Source
KJEF Decoded METAR 2021/05/13 04:53 UTC NOAA

JEFFERSON CITY MEMORIAL AIRPORT , MO, United States (KJEF) 38-36N 92-09W 168M
May 13, 2021 - 12:53 AM EDT / 2021.05.13 0453 UTC
Wind: from the W (260 degrees) at 3 MPH (3 KT):0
Visibility: 10 mile(s):0
Sky conditions: clear
Temperature: 48.0 F (8.9 C)
Dew Point: 32.0 F (0.0 C)
Relative Humidity: 53%
Pressure (altimeter): 30.4 in. Hg (1029 hPa)
ob: KJEF 130453Z AUTO 26003KT 10SM CLR 09/00 A3040 RMK AO2 SLP284 T00890000
cycle: 5

Station Type Date Time Source
KJEF TAF 2021/05/10 18:48 UTC NOAA

TAF KJEF 101720Z 1018/1118 VRB04KT P6SM FEW040 BKN250
FM110000 VRB04KT P6SM BKN120
FM110900 02006KT P6SM BKN100
FM111500 04010KT P6SM BKN050
AMD NOT SKED

Example: see airport list